sensor_id;sensor_type;location;lat;lon;timestamp;pressure;altitude;pressure_sealevel;temperature;humidity
10988;BME280;5547;42.672;23.230;2023-03-25T00:01:29;93042.41;;;4.32;100.00
10988;BME280;5547;42.672;23.230;2023-03-25T00:04:31;93072.56;;;4.52;100.00
10988;BME280;5547;42.672;23.230;2023-03-25T00:07:34;93080.06;;;4.39;100.00
10988;BME280;5547;42.672;23.230;2023-03-25T00:10:35;93029.97;;;4.25;100.00
10988;BME280;5547;42.672;23.230;2023-03-25T00:13:36;93006.53;;;3.91;100.00
10988;BME280;5547;42.672;23.230;2023-03-25T00:16:37;93068.03;;;4.42;100.00
10988;BME280;5547;42.672;23.230;2023-03-25T00:19:37;93059.00;;;4.43;100.00
10988;BME280;5547;42.672;23.230;2023-03-25T00:22:38;93007.72;;;4.05;100.00
10988;BME280;5547;42.672;23.230;2023-03-25T00:25:43;93035.63;;;4.31;100.00
10988;BME280;5547;42.672;23.230;2023-03-25T00:28:44;93018.25;;;4.05;100.00
10988;BME280;5547;42.672;23.230;2023-03-25T00:31:44;93035.31;;;4.39;100.00
10988;BME280;5547;42.672;23.230;2023-03-25T00:34:45;92987.81;;;4.11;100.00
10988;BME280;5547;42.672;23.230;2023-03-25T00:37:50;93041.75;;;4.63;100.00
10988;BME280;5547;42.672;23.230;2023-03-25T00:41:17;93001.00;;;4.25;100.00
10988;BME280;5547;42.672;23.230;2023-03-25T00:44:22;93045.16;;;4.71;100.00
10988;BME280;5547;42.672;23.230;2023-03-25T00:47:22;93025.66;;;4.97;100.00
10988;BME280;5547;42.672;23.230;2023-03-25T00:50:23;93042.94;;;4.77;100.00
10988;BME280;5547;42.672;23.230;2023-03-25T00:53:24;93044.00;;;4.54;100.00
10988;BME280;5547;42.672;23.230;2023-03-25T00:56:25;93039.09;;;4.53;100.00
10988;BME280;5547;42.672;23.230;2023-03-25T00:59:26;93016.06;;;4.25;100.00
10988;BME280;5547;42.672;23.230;2023-03-25T01:02:26;93019.13;;;4.37;100.00
10988;BME280;5547;42.672;23.230;2023-03-25T01:05:27;93024.78;;;4.50;100.00
10988;BME280;5547;42.672;23.230;2023-03-25T01:08:27;93004.81;;;4.35;100.00
10988;BME280;5547;42.672;23.230;2023-03-25T01:11:30;93012.00;;;4.49;100.00
10988;BME280;5547;42.672;23.230;2023-03-25T01:14:33;92969.38;;;4.07;100.00
10988;BME280;5547;42.672;23.230;2023-03-25T01:17:34;93013.09;;;4.37;100.00
10988;BME280;5547;42.672;23.230;2023-03-25T01:20:35;92990.47;;;4.25;100.00
10988;BME280;5547;42.672;23.230;2023-03-25T01:23:35;93007.03;;;4.26;100.00
10988;BME280;5547;42.672;23.230;2023-03-25T01:26:36;92922.69;;;3.90;100.00
10988;BME280;5547;42.672;23.230;2023-03-25T01:29:37;92994.69;;;4.37;100.00
10988;BME280;5547;42.672;23.230;2023-03-25T01:32:37;92959.56;;;4.04;100.00
10988;BME280;5547;42.672;23.230;2023-03-25T01:35:38;92932.50;;;3.96;100.00
10988;BME280;5547;42.672;23.230;2023-03-25T01:38:39;92976.94;;;4.27;100.00
10988;BME280;5547;42.672;23.230;2023-03-25T01:41:39;92953.53;;;3.89;100.00
10988;BME280;5547;42.672;23.230;2023-03-25T01:47:43;92920.34;;;3.67;100.00
10988;BME280;5547;42.672;23.230;2023-03-25T01:50:48;92958.81;;;3.93;100.00
10988;BME280;5547;42.672;23.230;2023-03-25T01:53:52;92977.97;;;3.93;100.00
10988;BME280;5547;42.672;23.230;2023-03-25T01:56:53;92979.38;;;3.76;100.00
10988;BME280;5547;42.672;23.230;2023-03-25T01:59:54;92937.53;;;3.43;100.00
10988;BME280;5547;42.672;23.230;2023-03-25T02:02:57;92970.06;;;3.90;100.00
10988;BME280;5547;42.672;23.230;2023-03-25T02:06:09;92963.03;;;4.22;100.00
10988;BME280;5547;42.672;23.230;2023-03-25T02:09:13;92972.53;;;4.56;100.00
10988;BME280;5547;42.672;23.230;2023-03-25T02:12:15;92950.59;;;4.12;100.00
10988;BME280;5547;42.672;23.230;2023-03-25T02:15:17;92924.19;;;3.87;100.00
10988;BME280;5547;42.672;23.230;2023-03-25T02:28:08;92930.16;;;3.73;100.00
10988;BME280;5547;42.672;23.230;2023-03-25T02:35:10;92919.19;;;3.57;100.00
10988;BME280;5547;42.672;23.230;2023-03-25T02:41:33;92953.50;;;3.86;100.00
10988;BME280;5547;42.672;23.230;2023-03-25T02:44:56;92940.72;;;3.84;100.00
10988;BME280;5547;42.672;23.230;2023-03-25T02:48:10;92922.69;;;3.90;100.00
10988;BME280;5547;42.672;23.230;2023-03-25T02:51:17;92948.91;;;3.68;100.00
10988;BME280;5547;42.672;23.230;2023-03-25T02:54:21;92943.56;;;3.50;100.00
10988;BME280;5547;42.672;23.230;2023-03-25T02:57:25;92931.16;;;3.51;100.00
10988;BME280;5547;42.672;23.230;2023-03-25T03:00:28;92934.94;;;3.50;100.00
10988;BME280;5547;42.672;23.230;2023-03-25T03:03:29;92895.31;;;3.21;100.00
10988;BME280;5547;42.672;23.230;2023-03-25T03:06:30;92936.13;;;3.63;100.00
10988;BME280;5547;42.672;23.230;2023-03-25T03:09:52;92922.47;;;3.40;100.00
10988;BME280;5547;42.672;23.230;2023-03-25T03:16:19;92935.31;;;3.55;100.00
10988;BME280;5547;42.672;23.230;2023-03-25T03:22:38;92912.59;;;3.15;100.00
10988;BME280;5547;42.672;23.230;2023-03-25T03:25:48;92945.50;;;3.64;100.00
10988;BME280;5547;42.672;23.230;2023-03-25T03:28:59;92932.69;;;3.52;100.00
10988;BME280;5547;42.672;23.230;2023-03-25T03:35:17;92942.47;;;3.55;100.00
10988;BME280;5547;42.672;23.230;2023-03-25T03:38:23;92944.28;;;3.44;100.00
10988;BME280;5547;42.672;23.230;2023-03-25T03:41:26;92943.56;;;3.47;100.00
10988;BME280;5547;42.672;23.230;2023-03-25T03:44:32;92924.53;;;3.09;100.00
10988;BME280;5547;42.672;23.230;2023-03-25T03:47:40;92950.09;;;3.74;100.00
10988;BME280;5547;42.672;23.230;2023-03-25T03:50:48;92942.81;;;3.53;100.00
10988;BME280;5547;42.672;23.230;2023-03-25T03:53:55;92953.44;;;3.68;100.00
10988;BME280;5547;42.672;23.230;2023-03-25T03:57:04;92942.97;;;3.86;100.00
10988;BME280;5547;42.672;23.230;2023-03-25T04:03:16;92953.81;;;3.73;100.00
10988;BME280;5547;42.672;23.230;2023-03-25T04:06:41;92927.81;;;3.54;100.00
10988;BME280;5547;42.672;23.230;2023-03-25T04:09:56;92943.59;;;3.54;100.00
10988;BME280;5547;42.672;23.230;2023-03-25T04:13:04;92946.88;;;3.36;100.00
10988;BME280;5547;42.672;23.230;2023-03-25T04:16:08;92948.16;;;3.71;100.00
10988;BME280;5547;42.672;23.230;2023-03-25T04:19:08;92928.56;;;3.58;100.00
10988;BME280;5547;42.672;23.230;2023-03-25T04:22:12;92938.03;;;3.70;100.00
10988;BME280;5547;42.672;23.230;2023-03-25T04:25:14;92931.97;;;3.62;100.00
10988;BME280;5547;42.672;23.230;2023-03-25T04:28:15;92909.00;;;3.45;100.00
10988;BME280;5547;42.672;23.230;2023-03-25T04:31:16;92943.00;;;3.89;100.00
10988;BME280;5547;42.672;23.230;2023-03-25T04:34:17;92933.16;;;3.75;100.00
10988;BME280;5547;42.672;23.230;2023-03-25T04:37:19;92903.06;;;3.69;100.00
10988;BME280;5547;42.672;23.230;2023-03-25T04:40:20;92934.84;;;4.23;100.00
10988;BME280;5547;42.672;23.230;2023-03-25T04:43:20;92947.63;;;4.21;100.00
10988;BME280;5547;42.672;23.230;2023-03-25T04:46:20;92951.47;;;4.84;100.00
10988;BME280;5547;42.672;23.230;2023-03-25T04:49:22;92831.72;;;3.78;100.00
10988;BME280;5547;42.672;23.230;2023-03-25T04:52:22;92969.16;;;4.70;100.00
10988;BME280;5547;42.672;23.230;2023-03-25T04:55:23;92957.47;;;4.71;100.00
10988;BME280;5547;42.672;23.230;2023-03-25T04:58:24;92952.59;;;4.80;100.00
10988;BME280;5547;42.672;23.230;2023-03-25T05:01:27;92954.50;;;4.97;100.00
10988;BME280;5547;42.672;23.230;2023-03-25T05:04:31;92960.47;;;5.34;100.00
10988;BME280;5547;42.672;23.230;2023-03-25T05:07:32;92954.44;;;5.47;100.00
10988;BME280;5547;42.672;23.230;2023-03-25T05:10:33;92970.97;;;5.73;100.00
10988;BME280;5547;42.672;23.230;2023-03-25T05:13:35;92956.16;;;6.12;100.00
10988;BME280;5547;42.672;23.230;2023-03-25T05:16:35;92943.13;;;6.53;100.00
10988;BME280;5547;42.672;23.230;2023-03-25T05:19:36;92932.63;;;6.98;100.00
10988;BME280;5547;42.672;23.230;2023-03-25T05:22:37;92961.56;;;7.57;100.00
10988;BME280;5547;42.672;23.230;2023-03-25T05:25:38;92959.91;;;7.74;100.00
10988;BME280;5547;42.672;23.230;2023-03-25T05:28:40;92958.94;;;7.92;100.00
10988;BME280;5547;42.672;23.230;2023-03-25T05:31:41;92967.06;;;8.12;100.00
10988;BME280;5547;42.672;23.230;2023-03-25T05:34:44;92972.94;;;8.27;100.00
10988;BME280;5547;42.672;23.230;2023-03-25T05:37:45;92956.00;;;8.20;100.00
10988;BME280;5547;42.672;23.230;2023-03-25T05:40:47;92933.75;;;8.11;100.00
10988;BME280;5547;42.672;23.230;2023-03-25T05:43:48;92928.63;;;7.96;100.00
10988;BME280;5547;42.672;23.230;2023-03-25T05:46:50;92946.50;;;8.23;100.00
10988;BME280;5547;42.672;23.230;2023-03-25T05:49:51;92978.34;;;8.50;100.00
10988;BME280;5547;42.672;23.230;2023-03-25T05:52:53;92982.97;;;8.73;100.00
10988;BME280;5547;42.672;23.230;2023-03-25T05:55:54;92981.41;;;9.03;100.00
10988;BME280;5547;42.672;23.230;2023-03-25T05:58:54;92979.56;;;9.00;100.00
10988;BME280;5547;42.672;23.230;2023-03-25T06:01:56;92966.69;;;8.98;100.00
10988;BME280;5547;42.672;23.230;2023-03-25T06:04:56;92987.19;;;9.21;100.00
10988;BME280;5547;42.672;23.230;2023-03-25T06:07:58;92973.78;;;9.32;100.00
10988;BME280;5547;42.672;23.230;2023-03-25T06:10:58;92971.75;;;9.40;100.00
10988;BME280;5547;42.672;23.230;2023-03-25T06:13:59;92936.66;;;9.29;100.00
10988;BME280;5547;42.672;23.230;2023-03-25T06:17:00;92965.16;;;9.72;100.00
10988;BME280;5547;42.672;23.230;2023-03-25T06:20:01;92939.75;;;9.71;100.00
10988;BME280;5547;42.672;23.230;2023-03-25T06:23:06;92923.91;;;9.87;100.00
10988;BME280;5547;42.672;23.230;2023-03-25T06:26:07;92968.13;;;10.37;100.00
10988;BME280;5547;42.672;23.230;2023-03-25T06:29:08;92932.81;;;10.17;100.00
10988;BME280;5547;42.672;23.230;2023-03-25T06:32:11;92975.19;;;10.64;100.00
10988;BME280;5547;42.672;23.230;2023-03-25T06:35:11;92976.06;;;10.93;100.00
10988;BME280;5547;42.672;23.230;2023-03-25T06:38:12;92971.25;;;11.05;100.00
10988;BME280;5547;42.672;23.230;2023-03-25T06:41:14;92963.09;;;10.96;72.87
10988;BME280;5547;42.672;23.230;2023-03-25T06:44:14;92977.00;;;11.36;71.38
10988;BME280;5547;42.672;23.230;2023-03-25T06:47:16;92921.69;;;10.78;71.93
10988;BME280;5547;42.672;23.230;2023-03-25T06:50:16;92987.97;;;11.05;72.15
10988;BME280;5547;42.672;23.230;2023-03-25T06:53:16;92954.03;;;10.93;73.55
10988;BME280;5547;42.672;23.230;2023-03-25T06:56:17;92987.75;;;11.32;73.30
10988;BME280;5547;42.672;23.230;2023-03-25T06:59:17;92922.66;;;10.51;74.37
10988;BME280;5547;42.672;23.230;2023-03-25T07:02:18;92998.41;;;11.32;72.25
10988;BME280;5547;42.672;23.230;2023-03-25T07:05:19;92972.06;;;11.02;74.76
10988;BME280;5547;42.672;23.230;2023-03-25T07:08:19;92956.44;;;11.20;74.05
10988;BME280;5547;42.672;23.230;2023-03-25T07:11:24;92990.06;;;11.47;75.00
10988;BME280;5547;42.672;23.230;2023-03-25T07:14:26;92982.91;;;11.60;72.51
10988;BME280;5547;42.672;23.230;2023-03-25T07:17:26;92947.88;;;11.12;75.01
10988;BME280;5547;42.672;23.230;2023-03-25T07:20:27;92980.22;;;11.93;70.98
10988;BME280;5547;42.672;23.230;2023-03-25T07:23:27;92991.50;;;12.13;70.66
10988;BME280;5547;42.672;23.230;2023-03-25T07:26:28;92962.72;;;11.92;70.69
10988;BME280;5547;42.672;23.230;2023-03-25T07:29:28;92943.22;;;11.95;71.74
10988;BME280;5547;42.672;23.230;2023-03-25T07:32:29;92955.22;;;12.71;68.17
10988;BME280;5547;42.672;23.230;2023-03-25T07:35:30;92984.06;;;12.76;66.82
10988;BME280;5547;42.672;23.230;2023-03-25T07:38:31;92986.72;;;13.14;68.58
10988;BME280;5547;42.672;23.230;2023-03-25T07:41:31;92989.88;;;13.73;65.82
10988;BME280;5547;42.672;23.230;2023-03-25T07:44:32;92988.53;;;13.91;64.67
10988;BME280;5547;42.672;23.230;2023-03-25T07:47:32;92977.16;;;14.12;62.95
10988;BME280;5547;42.672;23.230;2023-03-25T07:50:33;92971.22;;;14.17;65.11
10988;BME280;5547;42.672;23.230;2023-03-25T07:53:33;92971.31;;;14.26;65.52
10988;BME280;5547;42.672;23.230;2023-03-25T07:56:34;92972.56;;;14.57;63.60
10988;BME280;5547;42.672;23.230;2023-03-25T07:59:34;92937.69;;;14.25;62.30
10988;BME280;5547;42.672;23.230;2023-03-25T08:02:35;92969.59;;;14.86;63.70
10988;BME280;5547;42.672;23.230;2023-03-25T08:05:36;92953.59;;;14.73;63.33
10988;BME280;5547;42.672;23.230;2023-03-25T08:08:37;92942.59;;;15.02;63.27
10988;BME280;5547;42.672;23.230;2023-03-25T08:11:37;92956.34;;;15.23;61.34
10988;BME280;5547;42.672;23.230;2023-03-25T08:14:38;92960.56;;;15.51;60.77
10988;BME280;5547;42.672;23.230;2023-03-25T08:17:39;92949.88;;;15.70;60.33
10988;BME280;5547;42.672;23.230;2023-03-25T08:20:39;92958.56;;;16.02;57.98
10988;BME280;5547;42.672;23.230;2023-03-25T08:23:40;92933.53;;;15.77;60.95
10988;BME280;5547;42.672;23.230;2023-03-25T08:26:41;92955.59;;;15.81;58.93
10988;BME280;5547;42.672;23.230;2023-03-25T08:29:43;92950.22;;;16.00;58.19
10988;BME280;5547;42.672;23.230;2023-03-25T08:32:44;92924.56;;;16.26;57.03
10988;BME280;5547;42.672;23.230;2023-03-25T08:35:45;92951.06;;;16.43;56.94
10988;BME280;5547;42.672;23.230;2023-03-25T08:38:45;92902.50;;;16.31;57.60
10988;BME280;5547;42.672;23.230;2023-03-25T08:41:46;92905.78;;;16.26;58.11
10988;BME280;5547;42.672;23.230;2023-03-25T08:44:46;92937.41;;;16.13;59.30
10988;BME280;5547;42.672;23.230;2023-03-25T08:47:47;92935.00;;;16.15;57.00
10988;BME280;5547;42.672;23.230;2023-03-25T08:50:47;92915.06;;;15.98;57.59
10988;BME280;5547;42.672;23.230;2023-03-25T08:53:47;92933.22;;;15.93;57.53
10988;BME280;5547;42.672;23.230;2023-03-25T08:56:48;92908.16;;;15.41;59.38
10988;BME280;5547;42.672;23.230;2023-03-25T08:59:48;92882.69;;;15.27;59.20
10988;BME280;5547;42.672;23.230;2023-03-25T09:02:49;92901.00;;;15.57;58.29
10988;BME280;5547;42.672;23.230;2023-03-25T09:05:50;92886.75;;;15.78;55.51
10988;BME280;5547;42.672;23.230;2023-03-25T09:08:50;92915.66;;;15.92;54.32
10988;BME280;5547;42.672;23.230;2023-03-25T09:11:51;92910.28;;;16.20;55.11
10988;BME280;5547;42.672;23.230;2023-03-25T09:14:51;92852.16;;;16.08;55.99
10988;BME280;5547;42.672;23.230;2023-03-25T09:17:52;92916.72;;;17.17;52.73
10988;BME280;5547;42.672;23.230;2023-03-25T09:20:57;92929.28;;;17.11;52.59
10988;BME280;5547;42.672;23.230;2023-03-25T09:23:58;92918.78;;;16.09;54.64
10988;BME280;5547;42.672;23.230;2023-03-25T09:26:59;92874.75;;;15.15;55.79
10988;BME280;5547;42.672;23.230;2023-03-25T09:30:01;92878.91;;;15.16;55.65
10988;BME280;5547;42.672;23.230;2023-03-25T09:33:02;92910.56;;;15.67;54.55
10988;BME280;5547;42.672;23.230;2023-03-25T09:36:03;92849.22;;;15.50;55.01
10988;BME280;5547;42.672;23.230;2023-03-25T09:39:04;92873.16;;;16.18;53.21
10988;BME280;5547;42.672;23.230;2023-03-25T09:45:36;92912.97;;;16.72;51.12
10988;BME280;5547;42.672;23.230;2023-03-25T09:48:41;92868.44;;;15.95;51.64
10988;BME280;5547;42.672;23.230;2023-03-25T09:51:45;92886.63;;;16.52;52.00
10988;BME280;5547;42.672;23.230;2023-03-25T09:54:50;92847.53;;;16.08;51.80
10988;BME280;5547;42.672;23.230;2023-03-25T09:57:57;92899.53;;;16.20;50.54
10988;BME280;5547;42.672;23.230;2023-03-25T10:11:52;92877.94;;;17.09;49.41
10988;BME280;5547;42.672;23.230;2023-03-25T10:15:08;92882.56;;;17.56;47.36
10988;BME280;5547;42.672;23.230;2023-03-25T10:18:42;92874.84;;;17.25;47.79
10988;BME280;5547;42.672;23.230;2023-03-25T10:22:02;92859.50;;;17.16;46.31
10988;BME280;5547;42.672;23.230;2023-03-25T10:25:05;92845.53;;;16.79;48.78
10988;BME280;5547;42.672;23.230;2023-03-25T10:28:13;92862.22;;;16.83;48.24
10988;BME280;5547;42.672;23.230;2023-03-25T10:31:19;92838.34;;;17.09;48.75
10988;BME280;5547;42.672;23.230;2023-03-25T10:34:44;92826.09;;;16.84;48.59
10988;BME280;5547;42.672;23.230;2023-03-25T10:37:52;92852.38;;;17.37;49.14
10988;BME280;5547;42.672;23.230;2023-03-25T10:44:20;92833.16;;;17.54;47.88
10988;BME280;5547;42.672;23.230;2023-03-25T10:47:25;92827.09;;;17.83;48.17
10988;BME280;5547;42.672;23.230;2023-03-25T10:50:28;92753.03;;;17.43;48.81
10988;BME280;5547;42.672;23.230;2023-03-25T10:53:28;92799.16;;;17.95;48.50
10988;BME280;5547;42.672;23.230;2023-03-25T10:56:45;92817.91;;;18.34;44.63
10988;BME280;5547;42.672;23.230;2023-03-25T11:02:55;92809.41;;;17.91;47.54
10988;BME280;5547;42.672;23.230;2023-03-25T11:05:56;92789.13;;;17.66;47.99
10988;BME280;5547;42.672;23.230;2023-03-25T11:08:57;92810.44;;;17.70;47.79
10988;BME280;5547;42.672;23.230;2023-03-25T11:12:09;92802.91;;;18.13;47.45
10988;BME280;5547;42.672;23.230;2023-03-25T11:15:14;92749.09;;;17.83;43.58
10988;BME280;5547;42.672;23.230;2023-03-25T11:18:29;92793.25;;;18.21;43.12
10988;BME280;5547;42.672;23.230;2023-03-25T11:21:34;92790.09;;;18.08;43.12
10988;BME280;5547;42.672;23.230;2023-03-25T11:24:41;92794.91;;;18.18;42.95
10988;BME280;5547;42.672;23.230;2023-03-25T11:27:47;92756.19;;;18.16;43.37
10988;BME280;5547;42.672;23.230;2023-03-25T11:31:11;92788.19;;;18.58;42.48
10988;BME280;5547;42.672;23.230;2023-03-25T11:34:20;92769.38;;;18.79;41.22
10988;BME280;5547;42.672;23.230;2023-03-25T11:37:22;92761.19;;;18.73;39.65
10988;BME280;5547;42.672;23.230;2023-03-25T11:40:24;92760.97;;;19.12;39.87
10988;BME280;5547;42.672;23.230;2023-03-25T11:43:40;92739.59;;;19.08;38.91
10988;BME280;5547;42.672;23.230;2023-03-25T11:46:41;92747.50;;;18.92;38.00
10988;BME280;5547;42.672;23.230;2023-03-25T11:49:46;92741.81;;;19.30;37.96
10988;BME280;5547;42.672;23.230;2023-03-25T11:52:51;92741.72;;;19.45;38.99
10988;BME280;5547;42.672;23.230;2023-03-25T11:55:58;92729.72;;;19.00;38.78
10988;BME280;5547;42.672;23.230;2023-03-25T11:59:02;92747.06;;;18.78;38.87
10988;BME280;5547;42.672;23.230;2023-03-25T12:02:44;92743.41;;;18.61;38.76
10988;BME280;5547;42.672;23.230;2023-03-25T12:06:02;92749.97;;;18.60;40.14
10988;BME280;5547;42.672;23.230;2023-03-25T12:09:08;92751.16;;;18.38;39.65
10988;BME280;5547;42.672;23.230;2023-03-25T12:12:30;92718.53;;;17.71;41.69
10988;BME280;5547;42.672;23.230;2023-03-25T12:25:23;92749.09;;;17.98;41.36
10988;BME280;5547;42.672;23.230;2023-03-25T12:45:13;92722.75;;;17.87;40.04
10988;BME280;5547;42.672;23.230;2023-03-25T12:52:10;92736.84;;;17.82;39.31
10988;BME280;5547;42.672;23.230;2023-03-25T13:08:29;92701.34;;;16.61;43.81
10988;BME280;5547;42.672;23.230;2023-03-25T13:14:42;92733.63;;;17.00;43.54
10988;BME280;5547;42.672;23.230;2023-03-25T13:17:57;92741.53;;;16.79;43.33
10988;BME280;5547;42.672;23.230;2023-03-25T13:21:05;92728.72;;;16.74;43.87
10988;BME280;5547;42.672;23.230;2023-03-25T13:24:11;92740.84;;;16.70;43.68
10988;BME280;5547;42.672;23.230;2023-03-25T13:27:12;92732.31;;;16.71;44.44
10988;BME280;5547;42.672;23.230;2023-03-25T13:30:25;92720.38;;;16.48;44.62
10988;BME280;5547;42.672;23.230;2023-03-25T13:33:29;92707.69;;;16.25;44.16
10988;BME280;5547;42.672;23.230;2023-03-25T13:36:42;92723.56;;;16.04;44.71
10988;BME280;5547;42.672;23.230;2023-03-25T13:40:09;92764.47;;;15.53;51.68
10988;BME280;5547;42.672;23.230;2023-03-25T13:46:40;92756.91;;;13.97;65.57
10988;BME280;5547;42.672;23.230;2023-03-25T13:49:56;92760.06;;;13.73;62.60
10988;BME280;5547;42.672;23.230;2023-03-25T13:53:16;92789.66;;;13.57;64.94
10988;BME280;5547;42.672;23.230;2023-03-25T14:03:54;92776.25;;;13.13;75.27
10988;BME280;5547;42.672;23.230;2023-03-25T14:10:22;92766.66;;;13.02;80.64
10988;BME280;5547;42.672;23.230;2023-03-25T14:16:58;92748.94;;;12.61;86.80
10988;BME280;5547;42.672;23.230;2023-03-25T14:19:59;92765.63;;;12.52;90.52
10988;BME280;5547;42.672;23.230;2023-03-25T14:23:04;92768.25;;;12.65;91.03
10988;BME280;5547;42.672;23.230;2023-03-25T14:26:07;92768.09;;;12.34;100.00
10988;BME280;5547;42.672;23.230;2023-03-25T14:29:23;92749.75;;;11.97;100.00
10988;BME280;5547;42.672;23.230;2023-03-25T14:32:36;92694.25;;;11.28;100.00
10988;BME280;5547;42.672;23.230;2023-03-25T14:38:55;92659.50;;;11.32;100.00
10988;BME280;5547;42.672;23.230;2023-03-25T14:45:38;92689.38;;;11.78;100.00
10988;BME280;5547;42.672;23.230;2023-03-25T14:49:09;92654.75;;;11.78;100.00
10988;BME280;5547;42.672;23.230;2023-03-25T14:52:25;92660.28;;;12.09;100.00
10988;BME280;5547;42.672;23.230;2023-03-25T14:55:30;92662.03;;;12.38;100.00
10988;BME280;5547;42.672;23.230;2023-03-25T14:58:31;92663.88;;;12.63;100.00
10988;BME280;5547;42.672;23.230;2023-03-25T15:01:34;92665.16;;;12.71;100.00
10988;BME280;5547;42.672;23.230;2023-03-25T15:04:39;92646.41;;;12.84;100.00
10988;BME280;5547;42.672;23.230;2023-03-25T15:11:14;92664.47;;;13.02;100.00
10988;BME280;5547;42.672;23.230;2023-03-25T15:14:20;92664.66;;;12.86;100.00
10988;BME280;5547;42.672;23.230;2023-03-25T15:17:44;92655.59;;;12.83;100.00
10988;BME280;5547;42.672;23.230;2023-03-25T15:20:45;92621.63;;;12.61;100.00
10988;BME280;5547;42.672;23.230;2023-03-25T15:24:11;92636.66;;;12.68;100.00
10988;BME280;5547;42.672;23.230;2023-03-25T15:53:58;92631.84;;;12.06;100.00
10988;BME280;5547;42.672;23.230;2023-03-25T15:57:24;92617.66;;;11.84;100.00
10988;BME280;5547;42.672;23.230;2023-03-25T16:03:31;92639.28;;;11.73;100.00
10988;BME280;5547;42.672;23.230;2023-03-25T16:06:39;92637.59;;;11.66;100.00
10988;BME280;5547;42.672;23.230;2023-03-25T16:09:45;92639.63;;;11.62;100.00
10988;BME280;5547;42.672;23.230;2023-03-25T16:12:47;92641.09;;;11.50;100.00
10988;BME280;5547;42.672;23.230;2023-03-25T16:15:54;92605.19;;;11.04;100.00
10988;BME280;5547;42.672;23.230;2023-03-25T16:18:56;92631.09;;;11.16;100.00
10988;BME280;5547;42.672;23.230;2023-03-25T16:22:00;92633.63;;;11.07;100.00
10988;BME280;5547;42.672;23.230;2023-03-25T16:25:06;92631.91;;;11.00;100.00
10988;BME280;5547;42.672;23.230;2023-03-25T16:28:18;92617.28;;;10.79;100.00
10988;BME280;5547;42.672;23.230;2023-03-25T16:31:31;92611.41;;;10.71;100.00
10988;BME280;5547;42.672;23.230;2023-03-25T16:34:35;92620.31;;;10.65;100.00
10988;BME280;5547;42.672;23.230;2023-03-25T16:37:38;92588.97;;;10.43;100.00
10988;BME280;5547;42.672;23.230;2023-03-25T16:40:40;92610.72;;;10.55;100.00
10988;BME280;5547;42.672;23.230;2023-03-25T16:43:42;92597.66;;;10.31;100.00
10988;BME280;5547;42.672;23.230;2023-03-25T16:46:44;92613.88;;;10.49;100.00
10988;BME280;5547;42.672;23.230;2023-03-25T16:49:47;92616.16;;;10.35;100.00
10988;BME280;5547;42.672;23.230;2023-03-25T16:52:49;92591.75;;;10.07;100.00
10988;BME280;5547;42.672;23.230;2023-03-25T16:59:24;92616.75;;;10.09;100.00
10988;BME280;5547;42.672;23.230;2023-03-25T17:02:36;92598.19;;;9.93;100.00
10988;BME280;5547;42.672;23.230;2023-03-25T17:05:51;92603.31;;;9.84;100.00
10988;BME280;5547;42.672;23.230;2023-03-25T17:08:57;92609.06;;;9.82;100.00
10988;BME280;5547;42.672;23.230;2023-03-25T17:12:01;92581.91;;;9.25;100.00
10988;BME280;5547;42.672;23.230;2023-03-25T17:15:04;92585.50;;;9.52;100.00
10988;BME280;5547;42.672;23.230;2023-03-25T17:18:12;92597.53;;;9.56;100.00
10988;BME280;5547;42.672;23.230;2023-03-25T17:21:27;92604.16;;;9.48;100.00
10988;BME280;5547;42.672;23.230;2023-03-25T17:24:39;92599.03;;;9.41;100.00
10988;BME280;5547;42.672;23.230;2023-03-25T17:27:40;92590.88;;;9.32;100.00
10988;BME280;5547;42.672;23.230;2023-03-25T17:30:43;92565.97;;;9.09;100.00
10988;BME280;5547;42.672;23.230;2023-03-25T17:37:04;92612.44;;;9.17;100.00
10988;BME280;5547;42.672;23.230;2023-03-25T17:40:07;92554.50;;;8.96;100.00
10988;BME280;5547;42.672;23.230;2023-03-25T17:43:17;92602.63;;;9.14;100.00
10988;BME280;5547;42.672;23.230;2023-03-25T17:46:21;92608.34;;;9.13;100.00
10988;BME280;5547;42.672;23.230;2023-03-25T17:49:26;92477.25;;;8.21;100.00
10988;BME280;5547;42.672;23.230;2023-03-25T17:52:26;92597.56;;;9.03;100.00
10988;BME280;5547;42.672;23.230;2023-03-25T17:55:27;92604.50;;;8.97;100.00
10988;BME280;5547;42.672;23.230;2023-03-25T17:58:28;92601.72;;;8.84;100.00
10988;BME280;5547;42.672;23.230;2023-03-25T18:01:30;92595.22;;;8.69;100.00
10988;BME280;5547;42.672;23.230;2023-03-25T18:04:30;92608.31;;;8.76;100.00
10988;BME280;5547;42.672;23.230;2023-03-25T18:07:31;92588.88;;;8.63;100.00
10988;BME280;5547;42.672;23.230;2023-03-25T18:10:33;92601.53;;;8.55;100.00
10988;BME280;5547;42.672;23.230;2023-03-25T18:13:34;92610.09;;;8.63;100.00
10988;BME280;5547;42.672;23.230;2023-03-25T18:16:35;92563.56;;;8.42;100.00
10988;BME280;5547;42.672;23.230;2023-03-25T18:19:35;92557.66;;;8.11;100.00
10988;BME280;5547;42.672;23.230;2023-03-25T18:22:36;92567.78;;;8.36;100.00
10988;BME280;5547;42.672;23.230;2023-03-25T18:25:37;92607.59;;;8.56;100.00
10988;BME280;5547;42.672;23.230;2023-03-25T18:28:38;92601.25;;;8.70;100.00
10988;BME280;5547;42.672;23.230;2023-03-25T18:31:42;92554.63;;;8.32;100.00
10988;BME280;5547;42.672;23.230;2023-03-25T18:34:42;92577.78;;;8.28;100.00
10988;BME280;5547;42.672;23.230;2023-03-25T18:37:44;92590.69;;;8.26;100.00
10988;BME280;5547;42.672;23.230;2023-03-25T18:40:47;92609.69;;;8.21;100.00
10988;BME280;5547;42.672;23.230;2023-03-25T18:43:48;92571.66;;;7.88;100.00
10988;BME280;5547;42.672;23.230;2023-03-25T18:46:48;92541.72;;;7.47;100.00
10988;BME280;5547;42.672;23.230;2023-03-25T18:49:52;92584.25;;;8.04;100.00
10988;BME280;5547;42.672;23.230;2023-03-25T18:52:55;92615.69;;;8.02;100.00
10988;BME280;5547;42.672;23.230;2023-03-25T18:55:58;92528.53;;;7.44;100.00
10988;BME280;5547;42.672;23.230;2023-03-25T18:59:00;92612.88;;;8.12;100.00
10988;BME280;5547;42.672;23.230;2023-03-25T19:02:01;92598.09;;;7.91;100.00